createdAt,value
2023-02-14T00:01:43.294Z,59.20
2023-02-14T00:04:11.575Z,59.14
2023-02-14T00:06:40.129Z,59.11
2023-02-14T00:09:09.488Z,59.12
2023-02-14T00:11:38.100Z,59.25
2023-02-14T00:14:24.299Z,59.31
2023-02-14T00:16:54.574Z,59.30
2023-02-14T00:19:23.901Z,59.44
2023-02-14T00:21:52.164Z,59.70
2023-02-14T00:24:22.262Z,59.97
2023-02-14T00:26:51.500Z,60.36
2023-02-14T00:29:22.354Z,60.57
2023-02-14T00:31:53.896Z,60.78
2023-02-14T00:34:22.572Z,60.92
2023-02-14T00:36:50.799Z,61.00
2023-02-14T00:39:20.294Z,61.05
2023-02-14T00:41:48.767Z,61.64
2023-02-14T00:44:18.380Z,62.07
2023-02-14T00:46:46.672Z,62.24
2023-02-14T00:49:16.409Z,62.39
2023-02-14T00:51:44.762Z,62.63
2023-02-14T00:54:13.190Z,62.62
2023-02-14T00:56:41.439Z,62.59
2023-02-14T00:59:10.889Z,62.62
2023-02-14T01:01:39.570Z,62.47
2023-02-14T01:04:08.029Z,62.57
2023-02-14T01:06:37.929Z,62.29
2023-02-14T01:09:06.533Z,62.28
2023-02-14T01:11:35.083Z,62.21
2023-02-14T01:14:03.432Z,62.11
2023-02-14T01:16:32.069Z,62.15
2023-02-14T01:19:01.233Z,62.15
2023-02-14T01:21:32.027Z,62.04
2023-02-14T01:24:05.084Z,61.92
2023-02-14T01:26:33.852Z,62.05
2023-02-14T01:29:03.162Z,61.96
2023-02-14T01:31:33.743Z,61.79
2023-02-14T01:34:02.896Z,61.63
2023-02-14T01:36:32.998Z,61.64
2023-02-14T01:39:05.946Z,61.32
2023-02-14T01:41:37.477Z,61.26
2023-02-14T01:44:07.909Z,61.22
2023-02-14T01:46:37.570Z,61.16
2023-02-14T01:49:13.372Z,60.90
2023-02-14T01:51:46.023Z,60.99
2023-02-14T01:54:16.343Z,61.10
2023-02-14T01:56:50.312Z,61.19
2023-02-14T01:59:22.119Z,61.25
2023-02-14T02:01:53.387Z,61.38
2023-02-14T02:04:27.013Z,61.16
2023-02-14T02:07:03.364Z,61.10
2023-02-14T02:09:35.751Z,61.09
2023-02-14T02:12:04.952Z,61.20
2023-02-14T02:14:33.849Z,61.35
2023-02-14T02:17:26.354Z,61.05
2023-02-14T02:20:45.169Z,60.95
2023-02-14T02:23:48.884Z,60.84
2023-02-14T02:27:00.269Z,60.93
2023-02-14T02:29:58.245Z,60.98
2023-02-14T02:33:26.684Z,61.11
2023-02-14T02:36:09.216Z,61.08
2023-02-14T02:38:55.776Z,61.01
2023-02-14T02:41:32.601Z,61.35
2023-02-14T02:44:07.774Z,61.49
2023-02-14T02:46:48.604Z,61.63
2023-02-14T02:49:45.050Z,61.35
2023-02-14T02:52:38.790Z,61.37
2023-02-14T02:55:13.067Z,61.45
2023-02-14T02:57:42.239Z,61.57
2023-02-14T03:00:14.601Z,61.80
2023-02-14T03:03:05.566Z,61.86
2023-02-14T03:05:35.925Z,61.83
2023-02-14T03:08:06.519Z,61.77
2023-02-14T03:10:38.774Z,61.99
2023-02-14T03:13:42.470Z,61.47
2023-02-14T03:16:29.167Z,61.41
2023-02-14T03:19:22.006Z,61.71
2023-02-14T03:21:55.307Z,62.30
2023-02-14T03:24:31.390Z,62.27
2023-02-14T03:27:07.152Z,62.70
2023-02-14T03:29:45.266Z,62.58
2023-02-14T03:32:18.064Z,62.96
2023-02-14T03:34:55.863Z,62.55
2023-02-14T03:37:29.366Z,62.83
2023-02-14T03:40:04.487Z,63.02
2023-02-14T03:42:36.325Z,63.11
2023-02-14T03:45:08.820Z,64.29
2023-02-14T03:47:38.456Z,64.72
2023-02-14T03:50:10.259Z,64.79
2023-02-14T03:52:40.222Z,64.78
2023-02-14T03:55:11.725Z,64.76
2023-02-14T03:57:47.781Z,64.62
2023-02-14T04:00:18.732Z,64.81
2023-02-14T04:02:51.181Z,64.84
2023-02-14T04:05:22.566Z,64.72
2023-02-14T04:07:53.020Z,64.66
2023-02-14T04:10:23.334Z,64.63
2023-02-14T04:12:51.717Z,64.68
2023-02-14T04:15:20.063Z,64.72
2023-02-14T04:18:05.415Z,64.67
2023-02-14T04:20:34.201Z,64.37
2023-02-14T04:23:03.530Z,64.59
2023-02-14T04:25:33.483Z,64.63
2023-02-14T04:28:01.767Z,64.59
2023-02-14T04:30:30.178Z,64.87
2023-02-14T04:32:58.547Z,64.74
2023-02-14T04:35:26.806Z,63.53
2023-02-14T04:37:55.099Z,63.12
2023-02-14T04:40:23.563Z,62.91
2023-02-14T04:42:53.281Z,62.90
2023-02-14T04:45:21.631Z,62.87
2023-02-14T04:47:50.124Z,62.69
2023-02-14T04:50:18.545Z,62.57
2023-02-14T04:52:46.865Z,62.65
2023-02-14T04:55:15.138Z,62.78
2023-02-14T04:57:43.410Z,62.82
2023-02-14T05:00:14.531Z,62.94
2023-02-14T05:02:42.884Z,63.07
2023-02-14T05:05:11.219Z,63.04
2023-02-14T05:07:39.489Z,62.86
2023-02-14T05:10:08.725Z,62.98
2023-02-14T05:12:37.037Z,62.86
2023-02-14T05:15:05.642Z,62.83
2023-02-14T05:17:36.230Z,62.95
2023-02-14T05:20:05.956Z,62.94
2023-02-14T05:22:34.373Z,62.94
2023-02-14T05:25:02.619Z,63.01
2023-02-14T05:27:30.952Z,62.99
2023-02-14T05:29:59.310Z,63.31
2023-02-14T05:32:27.650Z,63.33
2023-02-14T05:34:57.688Z,63.43
2023-02-14T05:37:26.670Z,63.49
2023-02-14T05:39:54.942Z,63.60
2023-02-14T05:42:23.245Z,63.48
2023-02-14T05:44:51.536Z,63.41
2023-02-14T05:47:19.772Z,63.60
2023-02-14T05:49:48.073Z,63.89
2023-02-14T05:52:17.710Z,63.75
2023-02-14T05:54:46.023Z,63.79
2023-02-14T05:57:14.260Z,64.06
2023-02-14T05:59:42.504Z,63.93
2023-02-14T06:02:10.880Z,63.81
2023-02-14T06:04:39.224Z,63.67
2023-02-14T06:07:07.587Z,64.76
2023-02-14T06:09:37.306Z,65.21
2023-02-14T06:12:05.942Z,65.39
2023-02-14T06:14:34.243Z,65.42
2023-02-14T06:17:02.602Z,65.61
2023-02-14T06:19:30.985Z,65.44
2023-02-14T06:21:59.216Z,65.66
2023-02-14T06:24:27.537Z,65.49
2023-02-14T06:26:57.208Z,65.38
2023-02-14T06:29:25.523Z,65.36
2023-02-14T06:31:54.049Z,65.25
2023-02-14T06:34:22.358Z,65.44
2023-02-14T06:36:50.626Z,65.37
2023-02-14T06:39:18.922Z,65.39
2023-02-14T06:41:47.164Z,65.51
2023-02-14T06:44:16.958Z,65.31
2023-02-14T06:46:45.326Z,64.96
2023-02-14T06:49:13.752Z,65.05
2023-02-14T06:51:42.078Z,65.23
2023-02-14T06:54:10.304Z,65.27
2023-02-14T06:56:38.671Z,65.24
2023-02-14T06:59:07.010Z,65.21
2023-02-14T07:01:36.660Z,65.11
2023-02-14T07:04:05.119Z,65.16
2023-02-14T07:06:33.624Z,65.18
2023-02-14T07:09:01.872Z,65.19
2023-02-14T07:11:30.245Z,64.60
2023-02-14T07:13:58.508Z,64.91
2023-02-14T07:16:26.898Z,64.89
2023-02-14T07:18:56.580Z,64.92
2023-02-14T07:21:24.950Z,64.95
2023-02-14T07:23:53.291Z,65.04
2023-02-14T07:26:21.616Z,65.24
2023-02-14T07:28:51.668Z,65.50
2023-02-14T07:31:22.740Z,65.67
2023-02-14T07:33:51.368Z,65.60
2023-02-14T07:36:21.128Z,65.75
2023-02-14T07:38:49.356Z,65.50
2023-02-14T07:41:17.608Z,65.71
2023-02-14T07:43:45.887Z,65.63
2023-02-14T07:46:14.185Z,65.67
2023-02-14T07:48:42.413Z,65.77
2023-02-14T07:51:11.331Z,65.84
2023-02-14T07:53:41.346Z,65.88
2023-02-14T07:56:09.834Z,66.27
2023-02-14T07:58:38.275Z,66.16
2023-02-14T08:01:06.823Z,66.14
2023-02-14T08:03:35.107Z,66.20
2023-02-14T08:06:03.403Z,66.17
2023-02-14T08:08:32.718Z,66.22
2023-02-14T08:11:03.285Z,66.08
2023-02-14T08:13:31.706Z,66.04
2023-02-14T08:16:06.455Z,66.47
2023-02-14T08:18:36.914Z,66.75
2023-02-14T08:21:06.270Z,66.75
2023-02-14T08:23:34.854Z,66.86
2023-02-14T08:26:04.828Z,67.07
2023-02-14T08:28:33.704Z,67.55
2023-02-14T08:31:02.752Z,67.38
2023-02-14T08:33:31.259Z,67.52
2023-02-14T08:35:59.581Z,67.40
2023-02-14T08:38:27.886Z,67.04
2023-02-14T08:40:56.133Z,67.01
2023-02-14T08:43:26.010Z,67.08
2023-02-14T08:45:54.856Z,67.10
2023-02-14T08:48:23.975Z,67.36
2023-02-14T08:50:52.220Z,66.91
2023-02-14T08:53:22.203Z,66.69
2023-02-14T08:55:50.695Z,66.85
2023-02-14T08:58:18.956Z,66.75
2023-02-14T09:00:49.511Z,66.48
2023-02-14T09:03:17.898Z,66.47
2023-02-14T09:05:46.149Z,67.29
2023-02-14T09:08:14.457Z,67.56
2023-02-14T09:10:42.777Z,67.33
2023-02-14T09:13:11.127Z,66.96
2023-02-14T09:15:40.406Z,65.83
2023-02-14T09:18:10.036Z,64.97
2023-02-14T09:20:38.318Z,66.83
2023-02-14T09:23:06.853Z,66.40
2023-02-14T09:25:35.082Z,65.20
2023-02-14T09:28:03.487Z,62.58
2023-02-14T09:30:31.842Z,61.25
2023-02-14T09:33:00.423Z,61.29
2023-02-14T09:35:30.039Z,62.14
2023-02-14T09:38:15.937Z,61.25
2023-02-14T09:40:44.520Z,61.02
2023-02-14T09:43:22.174Z,60.86
2023-02-14T09:45:54.593Z,59.19
2023-02-14T09:48:28.374Z,58.48
2023-02-14T09:51:00.824Z,56.84
2023-02-14T09:53:31.066Z,56.54
2023-02-14T09:56:05.940Z,56.19
2023-02-14T09:58:38.265Z,55.37
2023-02-14T10:01:16.385Z,57.57
2023-02-14T10:04:01.182Z,56.82
2023-02-14T10:06:57.927Z,53.52
2023-02-14T10:10:01.274Z,55.23
2023-02-14T10:12:33.974Z,55.13
2023-02-14T10:15:06.635Z,52.57
2023-02-14T10:17:41.295Z,51.30
2023-02-14T10:20:21.518Z,49.47
2023-02-14T10:22:58.525Z,51.78
2023-02-14T10:25:30.524Z,50.40
2023-02-14T10:28:02.478Z,49.39
2023-02-14T10:30:39.070Z,47.23
2023-02-14T10:33:17.524Z,47.02
2023-02-14T10:35:49.113Z,47.60
2023-02-14T10:38:31.795Z,46.41
2023-02-14T10:41:20.642Z,47.05
2023-02-14T10:43:56.885Z,47.15
2023-02-14T10:46:36.005Z,47.28
2023-02-14T10:49:17.355Z,48.33
2023-02-14T10:51:51.465Z,49.11
2023-02-14T10:54:24.547Z,49.85
2023-02-14T10:56:58.540Z,48.67
2023-02-14T10:59:31.109Z,47.34
2023-02-14T11:02:01.878Z,45.23
2023-02-14T11:04:33.401Z,42.29
2023-02-14T11:07:01.956Z,41.48
2023-02-14T11:09:31.649Z,40.20
2023-02-14T11:12:01.256Z,40.71
2023-02-14T11:14:32.506Z,40.51
2023-02-14T11:17:20.934Z,39.64
2023-02-14T11:19:58.200Z,38.70
2023-02-14T11:22:31.186Z,38.45
2023-02-14T11:25:07.964Z,37.17
2023-02-14T11:27:37.859Z,37.54
2023-02-14T11:30:14.786Z,36.79
2023-02-14T11:32:43.195Z,36.75
2023-02-14T11:35:20.941Z,35.63
2023-02-14T11:37:53.546Z,34.90
2023-02-14T11:40:32.597Z,35.75
2023-02-14T11:43:17.823Z,34.70
2023-02-14T11:45:47.788Z,33.41
2023-02-14T11:48:36.569Z,34.63
2023-02-14T11:51:09.283Z,34.31
2023-02-14T11:53:45.886Z,32.48
2023-02-14T11:56:16.360Z,34.25
2023-02-14T11:58:56.664Z,33.78
2023-02-14T12:01:27.564Z,34.06
2023-02-14T12:03:58.342Z,34.26
2023-02-14T12:06:28.308Z,34.07
2023-02-14T12:09:14.982Z,33.44
2023-02-14T12:11:56.202Z,33.78
2023-02-14T12:14:26.387Z,34.50
2023-02-14T12:16:59.580Z,33.79
2023-02-14T12:19:38.628Z,34.02
2023-02-14T12:22:08.366Z,32.85
2023-02-14T12:24:42.613Z,33.25
2023-02-14T12:27:21.422Z,33.50
2023-02-14T12:29:54.349Z,32.70
2023-02-14T12:32:25.539Z,31.93
2023-02-14T12:35:01.530Z,33.05
2023-02-14T12:37:41.936Z,32.28
2023-02-14T12:40:21.640Z,31.84
2023-02-14T12:43:20.973Z,31.42
2023-02-14T12:46:02.774Z,32.02
2023-02-14T12:48:44.898Z,31.71
2023-02-14T12:51:26.858Z,32.17
2023-02-14T12:54:14.031Z,31.42
2023-02-14T12:56:51.054Z,33.02
2023-02-14T12:59:30.475Z,31.64
2023-02-14T13:02:22.911Z,32.31
2023-02-14T13:05:01.682Z,31.67
2023-02-14T13:07:46.373Z,30.86
2023-02-14T13:10:20.659Z,31.74
2023-02-14T13:12:57.699Z,30.72
2023-02-14T13:15:34.418Z,30.35
2023-02-14T13:18:11.541Z,30.40
2023-02-14T13:20:50.669Z,30.71
2023-02-14T13:23:25.703Z,31.45
2023-02-14T13:25:59.016Z,31.19
2023-02-14T13:28:29.260Z,30.94
2023-02-14T13:31:01.942Z,30.95
2023-02-14T13:33:36.440Z,31.98
2023-02-14T13:36:08.945Z,31.37
2023-02-14T13:38:42.982Z,31.17
2023-02-14T13:41:12.497Z,32.37
2023-02-14T13:43:48.813Z,32.12
2023-02-14T13:46:20.581Z,32.11
2023-02-14T13:49:01.014Z,31.27
2023-02-14T13:51:46.642Z,30.51
2023-02-14T13:54:32.770Z,30.93
2023-02-14T13:57:02.826Z,30.10
2023-02-14T13:59:33.582Z,31.24
2023-02-14T14:02:32.917Z,32.43
2023-02-14T14:05:01.296Z,31.54
2023-02-14T14:07:31.435Z,31.29
2023-02-14T14:10:05.056Z,32.84
2023-02-14T14:12:46.446Z,32.37
2023-02-14T14:15:20.541Z,33.16
2023-02-14T14:18:06.473Z,32.19
2023-02-14T14:20:45.797Z,32.48
2023-02-14T14:23:41.199Z,32.26
2023-02-14T14:26:31.252Z,31.82
2023-02-14T14:29:00.346Z,31.45
2023-02-14T14:31:29.782Z,32.20
2023-02-14T14:34:03.235Z,33.02
2023-02-14T14:36:31.503Z,33.04
2023-02-14T14:38:59.868Z,33.44
2023-02-14T14:41:31.231Z,33.16
2023-02-14T14:44:01.093Z,32.88
2023-02-14T14:46:29.752Z,32.83
2023-02-14T14:48:59.149Z,33.28
2023-02-14T14:51:31.741Z,33.14
2023-02-14T14:54:01.980Z,32.94
2023-02-14T14:56:33.702Z,32.84
2023-02-14T14:59:17.323Z,33.18
2023-02-14T15:01:46.330Z,33.73
2023-02-14T15:04:18.987Z,34.35
2023-02-14T15:06:49.842Z,34.14
2023-02-14T15:09:25.033Z,34.26
2023-02-14T15:12:12.041Z,34.59
2023-02-14T15:14:43.836Z,34.05
2023-02-14T15:17:19.345Z,34.37
2023-02-14T15:19:51.638Z,34.63
2023-02-14T15:22:25.000Z,34.60
2023-02-14T15:24:53.658Z,34.73
2023-02-14T15:27:24.024Z,35.45
2023-02-14T15:29:58.003Z,35.24
2023-02-14T15:32:27.377Z,34.89
2023-02-14T15:34:57.018Z,35.16
2023-02-14T15:37:27.267Z,36.35
2023-02-14T15:39:57.733Z,37.05
2023-02-14T15:42:29.838Z,37.87
2023-02-14T15:45:18.581Z,38.09
2023-02-14T15:47:49.360Z,39.08
2023-02-14T15:50:20.045Z,39.61
2023-02-14T15:52:50.035Z,40.17
2023-02-14T15:55:21.759Z,40.54
2023-02-14T15:57:56.744Z,40.90
2023-02-14T16:00:26.865Z,41.62
2023-02-14T16:02:58.250Z,41.90
2023-02-14T16:05:28.238Z,42.28
2023-02-14T16:08:01.093Z,42.39
2023-02-14T16:10:31.586Z,42.61
2023-02-14T16:13:03.481Z,42.84
2023-02-14T16:15:33.319Z,43.11
2023-02-14T16:18:07.612Z,43.32
2023-02-14T16:20:43.273Z,43.45
2023-02-14T16:23:22.739Z,43.49
2023-02-14T16:25:52.042Z,43.96
2023-02-14T16:28:20.712Z,44.43
2023-02-14T16:30:54.845Z,44.62
2023-02-14T16:33:25.460Z,44.96
2023-02-14T16:35:54.654Z,45.04
2023-02-14T16:38:24.483Z,45.28
2023-02-14T16:40:55.548Z,45.46
2023-02-14T16:43:24.053Z,45.64
2023-02-14T16:45:52.484Z,45.80
2023-02-14T16:48:21.221Z,45.86
2023-02-14T16:50:49.605Z,45.78
2023-02-14T16:53:27.267Z,45.77
2023-02-14T16:55:58.100Z,46.06
2023-02-14T16:58:29.606Z,46.37
2023-02-14T17:00:58.865Z,46.80
2023-02-14T17:03:27.928Z,47.12
2023-02-14T17:05:57.716Z,47.19
2023-02-14T17:08:27.633Z,47.57
2023-02-14T17:10:58.048Z,47.94
2023-02-14T17:13:28.804Z,48.10
2023-02-14T17:15:57.892Z,48.18
2023-02-14T17:18:26.793Z,48.57
2023-02-14T17:20:55.721Z,49.17
2023-02-14T17:23:24.538Z,49.21
2023-02-14T17:25:54.324Z,49.49
2023-02-14T17:28:25.600Z,49.85
2023-02-14T17:30:54.009Z,49.95
2023-02-14T17:33:23.050Z,49.98
2023-02-14T17:35:51.572Z,49.97
2023-02-14T17:38:21.529Z,50.17
2023-02-14T17:40:50.178Z,50.35
2023-02-14T17:43:19.998Z,50.40
2023-02-14T17:45:48.268Z,50.58
2023-02-14T17:48:16.606Z,50.59
2023-02-14T17:50:45.024Z,50.88
2023-02-14T17:53:13.351Z,50.96
2023-02-14T17:55:41.703Z,51.06
2023-02-14T17:58:10.224Z,51.50
2023-02-14T18:00:39.861Z,51.43
2023-02-14T18:03:08.198Z,51.61
2023-02-14T18:05:37.623Z,51.72
2023-02-14T18:08:06.202Z,51.94
2023-02-14T18:10:34.636Z,52.02
2023-02-14T18:13:03.372Z,52.01
2023-02-14T18:15:31.766Z,52.17
2023-02-14T18:18:01.465Z,52.36
2023-02-14T18:20:29.945Z,52.52
2023-02-14T18:22:58.140Z,52.64
2023-02-14T18:25:29.438Z,52.85
2023-02-14T18:27:57.668Z,53.17
2023-02-14T18:30:26.077Z,53.25
2023-02-14T18:32:55.038Z,53.36
2023-02-14T18:35:24.745Z,53.42
2023-02-14T18:37:54.588Z,53.41
2023-02-14T18:40:22.874Z,53.39
2023-02-14T18:42:51.132Z,53.23
2023-02-14T18:45:19.367Z,53.39
2023-02-14T18:47:47.926Z,53.49
2023-02-14T18:50:18.890Z,53.52
2023-02-14T18:52:48.650Z,53.63
2023-02-14T18:55:17.044Z,53.87
2023-02-14T18:57:45.317Z,53.99
2023-02-14T19:00:15.928Z,53.95
2023-02-14T19:02:45.514Z,54.01
2023-02-14T19:05:13.981Z,54.06
2023-02-14T19:07:42.209Z,54.13
2023-02-14T19:10:12.746Z,54.24
2023-02-14T19:12:40.983Z,54.48
2023-02-14T19:15:10.139Z,54.62
2023-02-14T19:17:41.430Z,54.58
2023-02-14T19:20:11.218Z,54.55
2023-02-14T19:22:39.639Z,54.78
2023-02-14T19:25:08.718Z,55.00
2023-02-14T19:27:39.879Z,55.30
2023-02-14T19:30:09.176Z,55.12
2023-02-14T19:32:37.455Z,54.07
2023-02-14T19:35:06.211Z,54.14
2023-02-14T19:37:34.476Z,54.01
2023-02-14T19:40:03.070Z,53.95
2023-02-14T19:42:31.317Z,53.91
2023-02-14T19:45:01.072Z,54.05
2023-02-14T19:47:45.978Z,53.86
2023-02-14T19:50:15.281Z,53.70
2023-02-14T19:52:43.980Z,53.70
2023-02-14T19:55:22.085Z,53.36
2023-02-14T19:57:50.382Z,53.74
2023-02-14T20:00:21.035Z,53.78
2023-02-14T20:02:49.634Z,53.91
2023-02-14T20:05:18.697Z,54.00
2023-02-14T20:07:49.271Z,54.07
2023-02-14T20:10:17.760Z,54.09
2023-02-14T20:12:46.130Z,54.20
2023-02-14T20:15:14.760Z,54.21
2023-02-14T20:17:44.794Z,54.35
2023-02-14T20:20:14.020Z,54.43
2023-02-14T20:22:42.538Z,54.38
2023-02-14T20:25:11.392Z,54.33
2023-02-14T20:27:40.150Z,54.29
2023-02-14T20:30:09.990Z,54.24
2023-02-14T20:32:38.347Z,54.33
2023-02-14T20:35:08.679Z,54.31
2023-02-14T20:37:36.982Z,54.46
2023-02-14T20:40:07.133Z,54.69
2023-02-14T20:42:35.407Z,54.67
2023-02-14T20:45:03.821Z,55.25
2023-02-14T20:47:32.022Z,56.01
2023-02-14T20:50:00.322Z,55.39
2023-02-14T20:52:30.101Z,55.13
2023-02-14T20:54:58.355Z,54.99
2023-02-14T20:57:26.775Z,54.87
2023-02-14T20:59:55.025Z,55.38
2023-02-14T21:02:23.302Z,55.25
2023-02-14T21:04:51.635Z,55.36
2023-02-14T21:07:19.908Z,55.26
2023-02-14T21:09:49.497Z,55.33
2023-02-14T21:12:17.935Z,55.64
2023-02-14T21:14:46.168Z,55.74
2023-02-14T21:17:14.474Z,55.93
2023-02-14T21:19:42.764Z,55.84
2023-02-14T21:22:11.170Z,55.64
2023-02-14T21:24:39.467Z,55.55
2023-02-14T21:27:09.133Z,55.61
2023-02-14T21:29:37.425Z,55.68
2023-02-14T21:32:06.047Z,55.65
2023-02-14T21:34:35.380Z,55.63
2023-02-14T21:37:03.673Z,55.67
2023-02-14T21:39:35.698Z,56.03
2023-02-14T21:42:04.074Z,56.10
2023-02-14T21:44:51.069Z,56.15
2023-02-14T21:47:19.484Z,56.15
2023-02-14T21:50:05.310Z,56.06
2023-02-14T21:52:33.602Z,56.07
2023-02-14T21:55:01.881Z,56.14
2023-02-14T21:57:31.480Z,56.12
2023-02-14T22:00:01.149Z,56.09
2023-02-14T22:02:29.473Z,56.12
2023-02-14T22:04:57.815Z,56.18
2023-02-14T22:07:28.957Z,56.14
2023-02-14T22:09:57.242Z,56.27
2023-02-14T22:12:25.628Z,56.26
2023-02-14T22:14:53.829Z,56.18
2023-02-14T22:17:23.513Z,56.19
2023-02-14T22:19:51.829Z,56.19
2023-02-14T22:22:20.076Z,56.15
2023-02-14T22:24:48.322Z,56.15
2023-02-14T22:27:17.236Z,56.19
2023-02-14T22:29:45.478Z,56.35
2023-02-14T22:32:13.891Z,56.37
2023-02-14T22:34:43.601Z,56.29
2023-02-14T22:37:11.916Z,56.23
2023-02-14T22:39:40.139Z,56.68
2023-02-14T22:42:10.058Z,56.66
2023-02-14T22:44:38.348Z,56.48
2023-02-14T22:47:06.930Z,56.46
2023-02-14T22:49:35.197Z,56.44
2023-02-14T22:52:04.931Z,56.45
2023-02-14T22:54:33.259Z,56.57
2023-02-14T22:57:01.526Z,56.58
2023-02-14T22:59:32.116Z,56.59
2023-02-14T23:02:01.375Z,56.61
2023-02-14T23:04:30.564Z,56.58
2023-02-14T23:06:58.948Z,56.74
2023-02-14T23:09:29.011Z,56.80
2023-02-14T23:11:57.386Z,56.82
2023-02-14T23:14:43.337Z,56.77
2023-02-14T23:17:33.825Z,56.52
2023-02-14T23:20:19.566Z,56.64
2023-02-14T23:22:47.800Z,56.72
2023-02-14T23:25:17.640Z,56.68
2023-02-14T23:27:48.396Z,56.68
2023-02-14T23:30:18.976Z,56.71
2023-02-14T23:32:48.175Z,56.72
2023-02-14T23:35:16.497Z,56.84
2023-02-14T23:37:44.803Z,56.84
2023-02-14T23:40:13.599Z,56.90
2023-02-14T23:42:43.275Z,56.91
2023-02-14T23:45:29.096Z,56.93
2023-02-14T23:47:57.433Z,56.94
2023-02-14T23:50:25.691Z,56.97
2023-02-14T23:52:54.032Z,57.17
2023-02-14T23:55:22.289Z,57.35
2023-02-14T23:57:52.080Z,57.59
